Baylis, IL

2:17 PM CST on December 22, 2014 (GMT -0600)
Macomb Municipal | Change Station
CLOSE
Current Station
Airport
Location: Macomb,
Elevation: 709 ft
Nearby Weather Stations

Elev 709 ft 40.52 °N, 90.65 °W | Updated 22 minutes ago

Overcast
Overcast
40 °F
Feels Like 33 °F
N
10
Wind Variable Wind from SE

Today
High -- | Low -- °F
--% Chance of Precip.
Yesterday
High -- | Low -- °F
Precip. -- in
7:21 AM 4:42 PM
New Moon, 1% visible
Pressure 29.60 in
Visibility 1.8 miles
Clouds Overcast 400 ft
Windchill 33 °F
Dew Point 40 °F
Humidity 100%
Rainfall 0.26 in
Snow Depth Not available.
UV 0 out of 12
Pollen .30 out of 12
Air Quality Not available.
Flu Activity Not available.
METAR KMQB 221955Z AUTO 14009KT 1 3/4SM BR OVC004 04/04 A2960 RMK AO2 T00430043

More Conditions Fewer Conditions

Pressure 29.60 in
Visibility 1.8 miles
Clouds Overcast 400 ft
Windchill 33 °F
Dew Point 40 °F
Humidity 100%
Rainfall 0.26 in
Snow Depth Not available.
UV 0 out of 12
Pollen .30 out of 12
Air Quality Not available.
Flu Activity Not available.
METAR KMQB 221955Z AUTO 14009KT 1 3/4SM BR OVC004 04/04 A2960 RMK AO2 T00430043

More Conditions Fewer Conditions

10-Day Weather Forecast

Almanac

Astronomy

Dec. 22, 2014 Rise Set
Actual Time
Civil Twilight
Nautical Twilight
Astronomical Twilight
Moon
Length of Visible Light
Length of Day
Tomorrow will be .
, % of the Moon is Illuminated

Today's Extremes

State Highs State Lows

Community

WunderPhotos

Upload Photos

1,779,708 photos uploaded!

WunderBlogs® & News

Nearby

Air Quality

  Air Quality AQ Index Pollutant
Not available.

Snow Depth

Station Depth Elevation

Earthquake Activity

City Distance Mag. Time & Date
Minimum magnitude displayed is 2.5.

Coastal Water Temperatures

Place Temperature

Nearby Weather Stations